Time;durP1;ratioP1;P1;durP2;ratioP2;P2;SDS_P1;SDS_P2;PMS_P1;PMS_P2;Temp;Humidity;BMP_temperature;BMP_pressure;BME280_temperature;BME280_humidity;BME280_pressure;Samples;Min_cycle;Max_cycle;Signal;HPM_P1;HPM_P2
2021/08/03 00:01:13;;;;;;;2.95;2.13;;;14.50;99.90;;;;;;5009616;28;20203;-78
2021/08/03 00:03:43;;;;;;;4.65;2.13;;;14.50;99.90;;;;;;5008970;28;20210;-77
2021/08/03 00:06:12;;;;;;;2.20;1.77;;;14.50;99.90;;;;;;5025848;28;20239;-78
2021/08/03 00:08:45;;;;;;;3.43;2.00;;;14.50;99.90;;;;;;5028660;28;20566;-78
2021/08/03 00:11:13;;;;;;;2.77;1.77;;;14.50;99.90;;;;;;5028451;28;20641;-79
2021/08/03 00:13:44;;;;;;;2.58;2.03;;;14.40;99.90;;;;;;5029084;28;20203;-78
2021/08/03 00:16:12;;;;;;;2.83;1.87;;;14.40;99.90;;;;;;5012060;28;20215;-77
2021/08/03 00:18:44;;;;;;;2.90;1.80;;;14.40;99.90;;;;;;5009305;28;20204;-79
2021/08/03 00:21:20;;;;;;;1.60;1.50;;;14.40;99.90;;;;;;5009609;28;20204;-78
2021/08/03 00:23:48;;;;;;;1.50;1.40;;;14.40;99.90;;;;;;5009357;28;20199;-78
2021/08/03 00:26:16;;;;;;;1.60;1.50;;;14.40;99.90;;;;;;5009203;28;20227;-79
2021/08/03 00:28:46;;;;;;;2.78;1.80;;;14.40;99.90;;;;;;5010038;28;20892;-77
2021/08/03 00:31:17;;;;;;;2.90;2.07;;;14.30;99.90;;;;;;5009572;28;20259;-82
2021/08/03 00:33:46;;;;;;;1.90;1.60;;;14.30;99.90;;;;;;5011280;28;20605;-80
2021/08/03 00:36:13;;;;;;;2.23;1.80;;;14.30;99.90;;;;;;5013943;28;20625;-81
2021/08/03 00:38:40;;;;;;;1.60;1.50;;;14.30;99.90;;;;;;5016386;28;20211;-80
2021/08/03 00:41:17;;;;;;;2.10;1.90;;;14.20;99.90;;;;;;5013455;28;20203;-80
2021/08/03 00:43:45;;;;;;;2.13;1.60;;;14.20;99.90;;;;;;5012295;28;20203;-79
2021/08/03 00:46:12;;;;;;;2.03;1.83;;;14.20;99.90;;;;;;5009192;28;20595;-80
2021/08/03 00:48:38;;;;;;;3.90;1.97;;;14.10;99.90;;;;;;5022061;28;20206;-81
2021/08/03 00:51:06;;;;;;;2.50;1.67;;;14.10;99.90;;;;;;5027228;28;20242;-81
2021/08/03 00:53:33;;;;;;;2.60;2.20;;;14.10;99.90;;;;;;5027298;28;20619;-81
2021/08/03 00:56:00;;;;;;;2.07;1.80;;;14.10;99.90;;;;;;5012206;28;20292;-80
2021/08/03 00:58:29;;;;;;;2.50;2.30;;;14.10;99.90;;;;;;5007785;28;20231;-81
2021/08/03 01:00:57;;;;;;;2.60;1.73;;;14.10;99.90;;;;;;5006768;28;21075;-80
2021/08/03 01:03:24;;;;;;;2.80;2.07;;;14.00;99.90;;;;;;5024458;28;20242;-81
2021/08/03 01:05:59;;;;;;;1.63;1.53;;;14.00;99.90;;;;;;5027015;28;20223;-81
2021/08/03 01:08:34;;;;;;;1.70;1.60;;;14.00;99.90;;;;;;5018386;28;20206;-78
2021/08/03 01:11:08;;;;;;;2.20;1.60;;;14.00;99.90;;;;;;5018314;28;20195;-82
2021/08/03 01:13:43;;;;;;;2.17;1.90;;;14.10;99.90;;;;;;5011436;28;20245;-82
2021/08/03 01:16:18;;;;;;;2.33;2.03;;;14.00;99.90;;;;;;5007748;28;20522;-78
2021/08/03 01:18:55;;;;;;;2.10;1.90;;;14.10;99.90;;;;;;5008149;28;20207;-78
2021/08/03 01:21:43;;;;;;;2.60;1.93;;;14.10;99.90;;;;;;5006914;28;20191;-79
2021/08/03 01:24:32;;;;;;;2.10;1.90;;;14.10;99.90;;;;;;5006957;28;20222;-79
2021/08/03 01:27:23;;;;;;;2.53;2.07;;;14.10;99.90;;;;;;5013017;28;20265;-78
2021/08/03 01:29:52;;;;;;;2.40;2.20;;;14.00;99.90;;;;;;5027314;28;20278;-78
2021/08/03 01:32:27;;;;;;;2.23;1.90;;;14.00;99.90;;;;;;5026719;28;20205;-79
2021/08/03 01:34:56;;;;;;;3.00;2.13;;;14.00;99.90;;;;;;5009560;28;20230;-80
2021/08/03 01:37:27;;;;;;;2.27;1.97;;;14.10;99.90;;;;;;5005573;28;20246;-78
2021/08/03 01:39:57;;;;;;;2.50;2.30;;;14.10;99.90;;;;;;5007022;28;20921;-80
2021/08/03 01:42:26;;;;;;;3.33;2.10;;;14.10;99.90;;;;;;5006336;28;20209;-80
2021/08/03 01:44:57;;;;;;;4.30;2.57;;;14.10;99.90;;;;;;5005659;28;20215;-79
2021/08/03 01:47:26;;;;;;;3.43;2.40;;;14.10;99.90;;;;;;5005683;28;20206;-77
2021/08/03 01:49:54;;;;;;;2.53;2.00;;;14.10;99.90;;;;;;5005472;28;20235;-77
2021/08/03 01:52:22;;;;;;;1.77;1.67;;;14.10;99.90;;;;;;5023437;28;20555;-77
2021/08/03 01:54:50;;;;;;;3.10;2.40;;;14.10;99.90;;;;;;5027008;28;20209;-78
2021/08/03 01:57:18;;;;;;;3.90;2.40;;;14.00;99.90;;;;;;5025671;28;20819;-79
2021/08/03 01:59:46;;;;;;;2.53;1.70;;;14.00;99.90;;;;;;5012682;28;20214;-83
2021/08/03 02:02:16;;;;;;;2.17;1.93;;;14.00;99.90;;;;;;5006057;28;20218;-79
2021/08/03 02:04:44;;;;;;;1.87;1.63;;;14.00;99.90;;;;;;5006891;28;20203;-79
2021/08/03 02:07:11;;;;;;;2.03;1.70;;;13.90;99.90;;;;;;5007033;28;20242;-79
2021/08/03 02:09:39;;;;;;;3.97;1.90;;;13.90;99.90;;;;;;5006318;28;20431;-79
2021/08/03 02:12:06;;;;;;;2.60;1.90;;;13.80;99.90;;;;;;5006281;28;20541;-78
2021/08/03 02:14:33;;;;;;;2.60;1.77;;;13.80;99.90;;;;;;5006531;28;20203;-79
2021/08/03 02:17:01;;;;;;;2.70;1.90;;;13.80;99.90;;;;;;5005787;28;20265;-78
2021/08/03 02:19:30;;;;;;;4.30;2.30;;;13.80;99.90;;;;;;5005959;28;20219;-82
2021/08/03 02:21:57;;;;;;;3.03;1.80;;;13.70;99.90;;;;;;5005798;28;20210;-79
2021/08/03 02:24:24;;;;;;;1.67;1.47;;;13.70;99.90;;;;;;5005427;28;20211;-79
2021/08/03 02:26:51;;;;;;;2.10;1.90;;;13.60;99.90;;;;;;5014794;28;20203;-80
2021/08/03 02:29:18;;;;;;;1.90;1.77;;;13.60;99.90;;;;;;5023892;28;20202;-80
2021/08/03 02:31:49;;;;;;;3.07;1.90;;;13.60;99.90;;;;;;5006139;28;20218;-80
2021/08/03 02:34:19;;;;;;;3.60;2.10;;;13.50;99.90;;;;;;5006134;28;20213;-80
2021/08/03 02:36:51;;;;;;;2.53;1.87;;;13.50;99.90;;;;;;5006183;28;20231;-80
2021/08/03 02:39:19;;;;;;;1.90;1.60;;;13.50;99.90;;;;;;5018137;28;20195;-79
2021/08/03 02:41:49;;;;;;;2.00;1.77;;;13.40;99.90;;;;;;5025847;28;20289;-79
2021/08/03 02:44:16;;;;;;;2.20;1.70;;;13.40;99.90;;;;;;5025642;28;20209;-78
2021/08/03 02:46:45;;;;;;;3.07;1.97;;;13.30;99.90;;;;;;5025808;28;20218;-79
2021/08/03 02:49:14;;;;;;;2.20;1.93;;;13.30;99.90;;;;;;5025244;28;20213;-80
2021/08/03 02:51:42;;;;;;;3.17;2.10;;;13.20;99.90;;;;;;5025287;28;20679;-80
2021/08/03 02:54:26;;;;;;;3.17;2.40;;;13.20;99.90;;;;;;5025637;28;20239;-80
2021/08/03 02:56:56;;;;;;;3.40;2.30;;;13.20;99.90;;;;;;5025607;28;20214;-80
2021/08/03 02:59:26;;;;;;;2.10;1.90;;;13.10;99.90;;;;;;5024076;28;20207;-80
2021/08/03 03:01:55;;;;;;;3.70;1.83;;;13.10;99.90;;;;;;5025490;28;20210;-78
2021/08/03 03:04:26;;;;;;;2.93;1.70;;;13.10;99.90;;;;;;5024819;28;20214;-79
2021/08/03 03:06:58;;;;;;;2.43;1.90;;;13.00;99.90;;;;;;5024679;28;20226;-80
2021/08/03 03:09:28;;;;;;;3.33;1.90;;;13.00;99.90;;;;;;5024999;28;20210;-80
2021/08/03 03:11:57;;;;;;;2.50;1.90;;;13.00;99.90;;;;;;5024903;28;20530;-79
2021/08/03 03:14:25;;;;;;;3.47;2.00;;;12.90;99.90;;;;;;5024978;28;20199;-80
2021/08/03 03:16:55;;;;;;;2.50;2.23;;;12.90;99.90;;;;;;5025482;28;20215;-80
2021/08/03 03:19:23;;;;;;;2.30;1.90;;;12.80;99.90;;;;;;5025454;28;20841;-79
2021/08/03 03:21:51;;;;;;;2.60;1.80;;;12.80;99.90;;;;;;5025306;28;20209;-80
2021/08/03 03:24:19;;;;;;;2.40;1.83;;;12.80;99.90;;;;;;5025551;28;20218;-78
2021/08/03 03:26:50;;;;;;;2.17;1.90;;;12.80;99.90;;;;;;5028775;28;20313;-79
2021/08/03 03:29:18;;;;;;;2.70;1.80;;;12.80;99.90;;;;;;5028825;28;20600;-78
2021/08/03 03:31:48;;;;;;;2.03;1.83;;;12.70;99.90;;;;;;5028630;28;20641;-80
2021/08/03 03:34:16;;;;;;;2.13;1.93;;;12.70;99.90;;;;;;5027648;28;20484;-80
2021/08/03 03:36:44;;;;;;;2.53;1.93;;;12.70;99.90;;;;;;5028098;28;20233;-79
2021/08/03 03:39:12;;;;;;;1.83;1.67;;;12.70;99.90;;;;;;5028046;28;20202;-79
2021/08/03 03:41:43;;;;;;;3.57;2.10;;;12.70;99.90;;;;;;5028608;28;20218;-79
2021/08/03 03:44:12;;;;;;;2.47;1.73;;;12.70;99.90;;;;;;5028663;28;20210;-78
2021/08/03 03:46:43;;;;;;;1.80;1.70;;;12.70;99.90;;;;;;5038931;28;20264;-79
2021/08/03 03:49:12;;;;;;;2.00;1.70;;;12.70;99.90;;;;;;5048573;28;20210;-79
2021/08/03 03:51:42;;;;;;;2.73;1.60;;;12.70;99.90;;;;;;5048640;28;20657;-79
2021/08/03 03:54:13;;;;;;;2.70;1.63;;;12.70;99.90;;;;;;5039914;28;20224;-78
2021/08/03 03:56:41;;;;;;;3.70;1.97;;;12.70;99.90;;;;;;5028199;28;20684;-78
2021/08/03 03:59:12;;;;;;;2.10;1.90;;;12.70;99.90;;;;;;5027769;28;20218;-80
2021/08/03 04:01:41;;;;;;;2.20;1.73;;;12.70;99.90;;;;;;5028292;28;20211;-79
2021/08/03 04:04:12;;;;;;;3.90;1.80;;;12.60;99.90;;;;;;5028504;28;20202;-81
2021/08/03 04:06:40;;;;;;;1.80;1.60;;;12.60;99.90;;;;;;5028394;28;20606;-78
2021/08/03 04:09:17;;;;;;;2.00;1.60;;;12.60;99.90;;;;;;5027408;28;20198;-78
2021/08/03 04:11:44;;;;;;;3.67;1.80;;;12.60;99.90;;;;;;5028390;28;20289;-79
2021/08/03 04:14:16;;;;;;;3.73;1.80;;;12.60;99.90;;;;;;5027737;28;20408;-79
2021/08/03 04:16:43;;;;;;;2.17;1.57;;;12.60;99.90;;;;;;5027902;28;20215;-79
2021/08/03 04:19:10;;;;;;;1.63;1.50;;;12.60;99.90;;;;;;5027934;28;20221;-77
2021/08/03 04:21:37;;;;;;;1.97;1.70;;;12.60;99.90;;;;;;5028039;28;20229;-78
2021/08/03 04:24:04;;;;;;;2.80;1.60;;;12.60;99.90;;;;;;5027253;28;20202;-78
2021/08/03 04:26:32;;;;;;;2.00;1.80;;;12.60;99.90;;;;;;5027339;28;20234;-78
2021/08/03 04:28:58;;;;;;;2.13;1.80;;;12.60;99.90;;;;;;5027764;28;20294;-78
2021/08/03 04:31:26;;;;;;;1.77;1.30;;;12.60;99.90;;;;;;5027091;28;20228;-77
2021/08/03 04:33:53;;;;;;;1.40;1.30;;;12.60;99.90;;;;;;5027455;28;20809;-80
2021/08/03 04:36:20;;;;;;;1.47;1.30;;;12.60;99.90;;;;;;5026206;28;20227;-79
2021/08/03 04:38:47;;;;;;;1.77;1.30;;;12.60;99.90;;;;;;5026405;28;20849;-81
2021/08/03 04:41:14;;;;;;;1.73;1.50;;;12.70;99.90;;;;;;5026523;28;20209;-80
2021/08/03 04:43:42;;;;;;;1.70;1.60;;;12.70;99.90;;;;;;5026777;28;20885;-80
2021/08/03 04:46:09;;;;;;;1.97;1.77;;;12.70;99.90;;;;;;5025854;28;20223;-79
2021/08/03 04:48:37;;;;;;;2.13;1.70;;;12.80;99.90;;;;;;5026640;28;20210;-79
2021/08/03 04:51:04;;;;;;;1.77;1.60;;;12.80;99.90;;;;;;5025555;28;20241;-81
2021/08/03 04:53:31;;;;;;;2.40;1.97;;;12.80;99.90;;;;;;5027340;28;20302;-80
2021/08/03 04:55:58;;;;;;;3.80;2.27;;;12.90;99.90;;;;;;5028083;28;20206;-78
2021/08/03 04:58:24;;;;;;;4.53;2.27;;;12.90;99.90;;;;;;5026798;28;20214;-78
2021/08/03 05:00:52;;;;;;;2.17;1.83;;;12.90;99.90;;;;;;5027581;28;20202;-77
2021/08/03 05:03:19;;;;;;;1.90;1.70;;;12.90;99.90;;;;;;5027909;28;20289;-79
2021/08/03 05:05:47;;;;;;;2.30;1.77;;;12.90;99.90;;;;;;5027193;28;20202;-78
2021/08/03 05:08:14;;;;;;;2.33;1.83;;;13.00;99.90;;;;;;5027180;28;20234;-79
2021/08/03 05:10:41;;;;;;;2.60;2.10;;;13.00;99.90;;;;;;5027438;28;20202;-78
2021/08/03 05:13:08;;;;;;;3.70;1.93;;;13.00;99.90;;;;;;5026078;28;20885;-79
2021/08/03 05:15:34;;;;;;;2.33;2.13;;;13.00;99.90;;;;;;5028044;28;20210;-77
2021/08/03 05:18:01;;;;;;;2.00;1.60;;;13.00;99.90;;;;;;5026546;28;20206;-79
2021/08/03 05:20:28;;;;;;;2.93;1.77;;;13.00;99.90;;;;;;5026176;28;20198;-79
2021/08/03 05:22:56;;;;;;;2.07;1.87;;;13.00;99.90;;;;;;5026597;28;20203;-78
2021/08/03 05:25:23;;;;;;;2.90;1.90;;;13.10;99.90;;;;;;5026753;28;20198;-79
2021/08/03 05:27:50;;;;;;;2.80;2.00;;;13.10;99.90;;;;;;5026497;28;20585;-80
2021/08/03 05:30:16;;;;;;;3.00;2.20;;;13.10;99.90;;;;;;5027447;28;20506;-80
2021/08/03 05:32:43;;;;;;;2.50;1.90;;;13.20;99.90;;;;;;5027568;28;20215;-79
2021/08/03 05:35:11;;;;;;;2.20;2.00;;;13.30;99.90;;;;;;5026929;28;20222;-78
2021/08/03 05:37:38;;;;;;;2.60;1.93;;;13.30;99.90;;;;;;5028278;28;20202;-79
2021/08/03 05:40:11;;;;;;;3.17;2.20;;;13.40;99.90;;;;;;5027853;28;20195;-80
2021/08/03 05:42:39;;;;;;;3.03;1.90;;;13.50;99.90;;;;;;5031314;28;20210;-79
2021/08/03 05:45:08;;;;;;;2.00;1.80;;;13.50;99.90;;;;;;5031633;28;20599;-80
2021/08/03 05:47:35;;;;;;;3.23;2.43;;;13.60;99.90;;;;;;5047505;28;20502;-79
2021/08/03 05:50:03;;;;;;;2.20;2.00;;;13.60;99.90;;;;;;5051804;28;20198;-79
2021/08/03 05:52:30;;;;;;;3.93;2.47;;;13.60;99.90;;;;;;5035476;28;20316;-80
2021/08/03 05:54:57;;;;;;;3.67;2.83;;;13.70;99.90;;;;;;5039573;28;20197;-79
2021/08/03 05:57:25;;;;;;;3.37;2.93;;;13.70;99.90;;;;;;5037473;28;20215;-79
2021/08/03 05:59:52;;;;;;;3.53;2.80;;;13.80;99.90;;;;;;5026537;28;20228;-77
2021/08/03 06:02:19;;;;;;;3.73;2.50;;;13.90;99.90;;;;;;5026501;28;20221;-78
2021/08/03 06:04:45;;;;;;;4.10;3.47;;;14.00;99.90;;;;;;5026459;28;20206;-78
2021/08/03 06:07:15;;;;;;;6.17;2.70;;;14.30;99.90;;;;;;5025097;28;20230;-77
2021/08/03 06:09:42;;;;;;;3.73;3.13;;;14.60;99.90;;;;;;5025272;28;20222;-80
2021/08/03 06:12:11;;;;;;;3.10;2.77;;;15.00;99.90;;;;;;5025695;28;20678;-80
2021/08/03 06:14:44;;;;;;;3.60;2.60;;;15.40;99.90;;;;;;5026257;28;20224;-78
2021/08/03 06:17:13;;;;;;;7.33;2.80;;;15.70;99.90;;;;;;5025807;28;20478;-79
2021/08/03 06:19:43;;;;;;;2.67;2.47;;;16.10;99.90;;;;;;5026413;28;20213;-80
2021/08/03 06:22:11;;;;;;;2.67;2.25;;;16.50;99.90;;;;;;5025427;28;20213;-79
2021/08/03 06:24:40;;;;;;;3.93;2.87;;;16.80;99.90;;;;;;5025314;28;20225;-79
2021/08/03 06:27:08;;;;;;;3.90;2.53;;;17.20;99.90;;;;;;5025508;28;20218;-78
2021/08/03 06:29:37;;;;;;;3.10;2.17;;;17.40;99.90;;;;;;5025264;28;20273;-79
2021/08/03 06:32:07;;;;;;;2.13;1.70;;;17.70;99.90;;;;;;5025640;28;20341;-78
2021/08/03 06:34:35;;;;;;;4.45;1.60;;;18.00;99.90;;;;;;5025381;28;20662;-79
2021/08/03 06:37:04;;;;;;;2.53;1.55;;;18.20;99.90;;;;;;5024624;28;20229;-81
2021/08/03 06:39:31;;;;;;;1.83;1.35;;;18.40;99.90;;;;;;5025439;28;20210;-80
2021/08/03 06:42:03;;;;;;;3.30;1.77;;;18.70;99.90;;;;;;5026008;28;20214;-82
2021/08/03 06:44:36;;;;;;;2.80;1.65;;;18.90;99.90;;;;;;5025827;28;20217;-81
2021/08/03 06:47:04;;;;;;;2.22;1.35;;;18.80;99.90;;;;;;5032102;28;20257;-79
2021/08/03 06:49:40;;;;;;;1.70;1.35;;;19.10;99.90;;;;;;5045121;28;20213;-82
2021/08/03 06:52:10;;;;;;;1.65;1.38;;;19.40;99.90;;;;;;5029842;28;20238;-81
2021/08/03 06:54:38;;;;;;;2.30;1.45;;;19.60;99.90;;;;;;5029777;28;20233;-81
2021/08/03 06:57:09;;;;;;;1.90;1.40;;;20.00;99.90;;;;;;5025740;28;20206;-79
2021/08/03 06:59:44;;;;;;;1.45;1.35;;;20.20;99.90;;;;;;5023944;28;20210;-80
2021/08/03 07:02:15;;;;;;;1.73;1.23;;;20.40;99.90;;;;;;5024463;28;20206;-81
2021/08/03 07:04:48;;;;;;;2.42;1.45;;;20.60;99.90;;;;;;5025205;28;20237;-80
2021/08/03 07:07:15;;;;;;;3.70;1.70;;;20.90;99.90;;;;;;5024463;28;20257;-80
2021/08/03 07:09:44;;;;;;;2.67;0.90;;;21.20;99.90;;;;;;5025316;28;20596;-80
2021/08/03 07:12:11;;;;;;;3.47;0.90;;;21.50;99.90;;;;;;5024650;28;20206;-80
2021/08/03 07:14:39;;;;;;;2.15;1.30;;;21.50;99.90;;;;;;5024752;28;20218;-80
2021/08/03 07:17:07;;;;;;;2.25;1.10;;;21.50;99.90;;;;;;5025301;28;20202;-78
2021/08/03 07:19:36;;;;;;;2.67;0.98;;;21.50;99.90;;;;;;5038741;28;20221;-79
2021/08/03 07:22:04;;;;;;;1.48;1.10;;;21.60;99.90;;;;;;5040413;28;20202;-79
2021/08/03 07:24:32;;;;;;;3.58;1.48;;;21.70;99.90;;;;;;5025113;28;20551;-81
2021/08/03 07:26:59;;;;;;;3.72;1.17;;;21.80;99.90;;;;;;5006355;28;20202;-79
2021/08/03 07:29:26;;;;;;;2.80;0.90;;;22.00;99.90;;;;;;5024686;28;20198;-77
2021/08/03 07:31:53;;;;;;;4.57;1.48;;;22.20;99.90;;;;;;5026231;28;20905;-80
2021/08/03 07:34:20;;;;;;;3.05;1.10;;;22.30;99.90;;;;;;5026654;28;20581;-78
2021/08/03 07:36:47;;;;;;;1.83;1.00;;;22.30;99.90;;;;;;5027285;28;20222;-81
2021/08/03 07:39:16;;;;;;;2.25;0.95;;;22.30;99.90;;;;;;5024836;28;20205;-80
2021/08/03 07:41:43;;;;;;;1.70;0.88;;;22.50;99.90;;;;;;5026930;28;20611;-82
2021/08/03 07:44:09;;;;;;;1.80;0.90;;;22.30;99.90;;;;;;5025604;28;20538;-84
2021/08/03 07:46:37;;;;;;;2.10;0.93;;;22.60;99.90;;;;;;5025738;28;20214;-79
2021/08/03 07:49:05;;;;;;;1.90;0.98;;;22.70;99.90;;;;;;5025285;28;20237;-80
2021/08/03 07:51:32;;;;;;;2.63;1.02;;;22.80;99.90;;;;;;5023705;28;20702;-81
2021/08/03 07:53:59;;;;;;;1.88;1.00;;;22.90;99.90;;;;;;5024433;28;20199;-82
2021/08/03 07:56:28;;;;;;;1.55;0.80;;;23.10;99.90;;;;;;5023940;28;20211;-80
2021/08/03 07:58:54;;;;;;;3.13;0.90;;;23.30;99.90;;;;;;5023622;28;20206;-81
2021/08/03 08:01:21;;;;;;;2.22;0.90;;;23.50;99.90;;;;;;5023285;28;20607;-81
2021/08/03 08:03:48;;;;;;;2.03;0.90;;;23.60;99.90;;;;;;5024460;28;20264;-83
2021/08/03 08:06:15;;;;;;;1.08;0.85;;;23.90;99.90;;;;;;5023182;28;20203;-82
2021/08/03 08:08:43;;;;;;;2.30;0.90;;;24.10;99.90;;;;;;5024272;28;20311;-82
2021/08/03 08:11:10;;;;;;;1.00;0.90;;;24.00;99.90;;;;;;5029429;28;20241;-81
2021/08/03 08:13:38;;;;;;;2.97;0.90;;;23.80;99.90;;;;;;5027723;28;20201;-83
2021/08/03 08:16:06;;;;;;;2.38;1.00;;;24.00;99.90;;;;;;5046983;28;20209;-79
2021/08/03 08:18:33;;;;;;;1.25;0.80;;;24.10;99.90;;;;;;5041166;28;20583;-80
2021/08/03 08:21:01;;;;;;;1.50;0.70;;;24.50;99.90;;;;;;5037314;28;20212;-81
2021/08/03 08:23:28;;;;;;;3.85;1.30;;;24.40;99.90;;;;;;5046884;28;20198;-80
2021/08/03 08:25:58;;;;;;;2.65;0.98;;;24.50;99.90;;;;;;5044446;28;20194;-80
2021/08/03 08:28:42;;;;;;;1.88;0.98;;;24.50;99.90;;;;;;4992051;28;20635;-79
2021/08/03 08:31:08;;;;;;;1.80;0.80;;;24.40;99.90;;;;;;5037721;28;20205;-80
2021/08/03 08:33:35;;;;;;;1.60;0.98;;;24.60;99.90;;;;;;5026990;28;20233;-82
2021/08/03 08:36:02;;;;;;;1.30;0.80;;;25.00;99.90;;;;;;5025719;28;20226;-78
2021/08/03 08:38:29;;;;;;;0.77;0.70;;;25.10;99.90;;;;;;5026344;28;20203;-80
2021/08/03 08:40:56;;;;;;;1.55;1.00;;;25.40;99.90;;;;;;5026704;28;20801;-79
2021/08/03 08:43:24;;;;;;;2.28;1.15;;;25.30;99.90;;;;;;5025531;28;20289;-80
2021/08/03 08:45:55;;;;;;;3.00;1.10;;;25.60;99.90;;;;;;5027476;28;20198;-79
2021/08/03 08:48:22;;;;;;;3.38;1.10;;;25.60;99.90;;;;;;5027290;28;20417;-79
2021/08/03 08:50:53;;;;;;;2.28;1.00;;;25.70;99.90;;;;;;5026584;28;20242;-78
2021/08/03 08:53:21;;;;;;;1.92;1.05;;;25.90;99.90;;;;;;5026322;28;20563;-77
2021/08/03 08:55:48;;;;;;;2.05;0.95;;;25.80;99.90;;;;;;5026754;28;20203;-78
2021/08/03 08:58:15;;;;;;;1.98;1.17;;;25.90;99.90;;;;;;5023259;28;20218;-80
2021/08/03 09:00:41;;;;;;;2.22;1.10;;;26.00;99.90;;;;;;5028113;28;20285;-81
2021/08/03 09:03:10;;;;;;;2.58;1.10;;;25.90;99.90;;;;;;5028988;28;20206;-78
2021/08/03 09:05:39;;;;;;;2.88;1.05;;;25.70;99.90;;;;;;5025591;28;20208;-79
2021/08/03 09:08:07;;;;;;;2.10;1.20;;;25.30;99.90;;;;;;5026283;28;20316;-82
2021/08/03 09:10:37;;;;;;;2.58;1.10;;;24.80;99.90;;;;;;5025790;28;20206;-80
2021/08/03 09:13:07;;;;;;;2.50;0.75;;;24.40;99.90;;;;;;5034975;28;20228;-80
2021/08/03 09:15:36;;;;;;;1.40;1.00;;;24.00;99.90;;;;;;5034535;28;20202;-79
2021/08/03 09:18:13;;;;;;;2.08;1.15;;;23.80;99.90;;;;;;5041204;23;20242;-81
2021/08/03 09:20:40;;;;;;;2.33;1.00;;;23.80;99.90;;;;;;5045888;28;20665;-79
2021/08/03 09:23:07;;;;;;;2.78;1.20;;;23.80;99.90;;;;;;5044907;28;20206;-80
2021/08/03 09:25:35;;;;;;;1.42;0.90;;;23.70;99.90;;;;;;5032347;28;20779;-79
2021/08/03 09:28:03;;;;;;;1.10;0.85;;;23.60;99.90;;;;;;5025745;28;20635;-78
2021/08/03 09:30:32;;;;;;;1.98;1.20;;;23.40;99.90;;;;;;5024923;28;20210;-80
2021/08/03 09:32:59;;;;;;;3.00;1.05;;;23.00;99.90;;;;;;5025043;28;20229;-81
2021/08/03 09:35:28;;;;;;;2.17;1.40;;;22.90;99.90;;;;;;5037111;28;20540;-82
2021/08/03 09:37:56;;;;;;;1.90;1.42;;;22.60;99.90;;;;;;5046365;28;20653;-80
2021/08/03 09:40:24;;;;;;;1.20;1.10;;;22.60;99.90;;;;;;5044998;28;20276;-79
2021/08/03 09:42:59;;;;;;;2.55;1.10;;;22.60;99.90;;;;;;5045362;28;20201;-79
2021/08/03 09:45:26;;;;;;;2.05;1.00;;;22.40;99.90;;;;;;5027380;28;20242;-80
2021/08/03 09:48:07;;;;;;;5.07;1.70;;;22.40;99.90;;;;;;5025351;28;20230;-80
2021/08/03 09:50:52;;;;;;;1.30;1.00;;;22.10;99.90;;;;;;5026144;28;20218;-80
2021/08/03 09:53:44;;;;;;;1.75;0.98;;;21.90;99.90;;;;;;5024779;28;20322;-79
2021/08/03 09:56:12;;;;;;;3.42;1.25;;;21.80;99.90;;;;;;5025828;28;20670;-79
2021/08/03 09:58:57;;;;;;;1.67;1.13;;;21.70;99.90;;;;;;5025377;28;20198;-79
2021/08/03 10:01:29;;;;;;;1.73;1.10;;;21.70;99.90;;;;;;5029614;28;20214;-81
2021/08/03 10:03:58;;;;;;;3.65;1.45;;;21.50;99.90;;;;;;5030452;28;20201;-81
2021/08/03 10:06:27;;;;;;;4.93;1.60;;;21.40;99.90;;;;;;5034661;28;20214;-81
2021/08/03 10:08:57;;;;;;;5.43;1.20;;;21.00;99.90;;;;;;5048443;28;20652;-81
2021/08/03 10:11:25;;;;;;;2.97;1.35;;;20.90;99.90;;;;;;5047631;28;20206;-82
2021/08/03 10:13:53;;;;;;;4.38;1.30;;;20.60;99.90;;;;;;5047726;28;20209;-81
2021/08/03 10:16:20;;;;;;;4.45;1.48;;;20.30;99.90;;;;;;5051459;23;20209;-79
2021/08/03 10:18:49;;;;;;;3.00;1.35;;;20.20;99.90;;;;;;5044714;28;20741;-79
2021/08/03 10:21:28;;;;;;;2.42;1.00;;;20.10;99.90;;;;;;5045046;28;20202;-80
2021/08/03 10:23:57;;;;;;;2.05;1.38;;;20.10;99.90;;;;;;5045500;28;20204;-80
2021/08/03 10:26:25;;;;;;;4.97;1.60;;;20.00;99.90;;;;;;5041844;28;20206;-79
2021/08/03 10:29:23;;;;;;;7.97;1.50;;;19.90;99.90;;;;;;5023786;28;20230;-80
2021/08/03 10:31:49;;;;;;;2.80;1.35;;;19.80;99.90;;;;;;5025862;28;20824;-79
2021/08/03 10:34:52;;;;;;;3.10;1.38;;;19.80;99.90;;;;;;5025564;28;20629;-81
2021/08/03 10:37:24;;;;;;;3.58;1.38;;;19.80;99.90;;;;;;5007097;28;20248;-79
2021/08/03 10:39:53;;;;;;;3.38;1.45;;;19.70;99.90;;;;;;5011140;28;20548;-79
2021/08/03 10:42:21;;;;;;;4.57;1.35;;;19.70;99.90;;;;;;5005623;28;20206;-80
2021/08/03 10:44:49;;;;;;;3.45;1.27;;;19.70;99.90;;;;;;5006331;28;20214;-81
2021/08/03 10:47:48;;;;;;;4.20;1.50;;;19.70;99.90;;;;;;5005471;28;20878;-78
2021/08/03 10:50:17;;;;;;;2.28;1.20;;;19.70;99.90;;;;;;5004256;28;20301;-78
2021/08/03 10:52:54;;;;;;;2.47;1.30;;;19.60;99.90;;;;;;5005773;28;20202;-79
2021/08/03 10:55:35;;;;;;;2.00;1.20;;;19.70;99.90;;;;;;5021608;28;20310;-79
2021/08/03 10:58:24;;;;;;;2.55;1.10;;;19.70;99.90;;;;;;5016253;28;20195;-78
2021/08/03 11:00:53;;;;;;;3.50;1.58;;;19.80;99.90;;;;;;5006222;28;20207;-79
2021/08/03 11:03:41;;;;;;;4.13;1.70;;;19.70;99.90;;;;;;5006216;28;20209;-80
2021/08/03 11:06:34;;;;;;;3.40;1.50;;;19.80;99.90;;;;;;5006254;28;20207;-79
2021/08/03 11:09:02;;;;;;;4.28;1.83;;;19.70;99.90;;;;;;5016199;28;20251;-80
2021/08/03 11:11:30;;;;;;;1.60;1.30;;;19.70;99.90;;;;;;5013357;28;20570;-80
2021/08/03 11:14:04;;;;;;;2.60;1.10;;;19.70;99.90;;;;;;4988171;28;20210;-81
2021/08/03 11:16:56;;;;;;;2.65;1.42;;;19.80;99.90;;;;;;5005261;28;20238;-81
2021/08/03 11:19:34;;;;;;;2.33;1.50;;;19.70;99.90;;;;;;5018260;28;20744;-80
2021/08/03 11:22:02;;;;;;;2.30;1.20;;;19.80;99.90;;;;;;5010249;28;20570;-80
2021/08/03 11:24:44;;;;;;;3.03;1.63;;;19.70;99.90;;;;;;5009691;28;20211;-80
2021/08/03 11:27:11;;;;;;;4.18;1.60;;;19.70;99.90;;;;;;5007994;28;20373;-81
2021/08/03 11:29:41;;;;;;;3.97;1.70;;;19.60;99.90;;;;;;5007222;28;20262;-81
2021/08/03 11:32:09;;;;;;;1.95;1.27;;;19.50;99.90;;;;;;5003164;28;20211;-79
2021/08/03 11:34:37;;;;;;;3.15;1.58;;;19.50;99.90;;;;;;5004373;28;20394;-80
2021/08/03 11:37:11;;;;;;;4.03;2.28;;;19.60;99.90;;;;;;5021117;28;20554;-79
2021/08/03 11:39:43;;;;;;;2.33;1.42;;;19.60;99.90;;;;;;5022175;28;20206;-81
2021/08/03 11:42:11;;;;;;;2.17;1.27;;;19.60;99.90;;;;;;5004749;28;20510;-79
2021/08/03 11:44:39;;;;;;;3.58;1.92;;;19.70;99.90;;;;;;5005460;28;20203;-81
2021/08/03 11:47:08;;;;;;;1.98;1.30;;;19.60;99.90;;;;;;5015909;28;20214;-79
2021/08/03 11:49:38;;;;;;;1.73;1.20;;;19.70;99.90;;;;;;5028256;28;20234;-79
2021/08/03 11:52:12;;;;;;;2.95;1.30;;;19.70;99.90;;;;;;5028546;28;20202;-80
2021/08/03 11:54:42;;;;;;;3.67;1.45;;;19.80;99.90;;;;;;5027482;28;20213;-81
2021/08/03 11:57:28;;;;;;;2.90;1.58;;;19.80;99.90;;;;;;5014872;28;20295;-81
2021/08/03 12:00:06;;;;;;;1.75;1.65;;;19.80;99.90;;;;;;4995531;28;20594;-81
2021/08/03 12:02:33;;;;;;;2.25;1.40;;;19.70;99.90;;;;;;5008363;28;20223;-82
2021/08/03 12:05:08;;;;;;;2.58;1.70;;;19.70;99.90;;;;;;5008176;28;20208;-81
2021/08/03 12:07:36;;;;;;;2.85;1.60;;;19.60;99.90;;;;;;5007341;28;20198;-84
2021/08/03 12:10:05;;;;;;;2.13;1.50;;;19.60;99.90;;;;;;5007944;28;20223;-82
2021/08/03 12:12:33;;;;;;;1.60;1.30;;;19.70;99.90;;;;;;5007880;28;20592;-82
2021/08/03 12:15:05;;;;;;;2.08;1.58;;;19.70;99.90;;;;;;5008295;28;20211;-80
2021/08/03 12:17:33;;;;;;;7.40;2.25;;;19.90;99.90;;;;;;5027335;28;20681;-80
2021/08/03 12:20:03;;;;;;;2.55;1.42;;;19.80;99.90;;;;;;5012758;28;20215;-80
2021/08/03 12:22:31;;;;;;;1.45;1.20;;;19.90;99.90;;;;;;5007629;28;20558;-80
2021/08/03 12:25:00;;;;;;;2.08;1.48;;;19.90;99.90;;;;;;5007483;28;20215;-80
2021/08/03 12:27:37;;;;;;;2.75;1.55;;;19.90;99.90;;;;;;5008391;28;20250;-82
2021/08/03 12:30:04;;;;;;;5.15;1.63;;;20.00;99.90;;;;;;5007784;28;20227;-81
2021/08/03 12:32:38;;;;;;;1.77;1.45;;;20.00;99.90;;;;;;5015690;28;20213;-80
2021/08/03 12:35:12;;;;;;;2.35;1.58;;;20.00;99.90;;;;;;5029612;28;20226;-80
2021/08/03 12:37:39;;;;;;;1.73;1.33;;;20.00;99.90;;;;;;5047290;28;20198;-81
2021/08/03 12:40:27;;;;;;;2.33;1.30;;;20.10;99.90;;;;;;5032326;28;20198;-82
2021/08/03 12:42:56;;;;;;;4.35;1.95;;;20.20;99.90;;;;;;5033215;28;20222;-80
2021/08/03 12:45:23;;;;;;;2.47;1.60;;;20.40;99.90;;;;;;5031198;28;20301;-80
2021/08/03 12:47:52;;;;;;;2.47;1.67;;;20.60;99.90;;;;;;5015309;28;20222;-80
2021/08/03 12:50:20;;;;;;;2.50;1.13;;;20.80;99.90;;;;;;5007271;28;20285;-82
2021/08/03 12:52:48;;;;;;;1.80;1.60;;;21.10;99.90;;;;;;5009010;28;20206;-83
2021/08/03 12:55:25;;;;;;;4.28;1.73;;;21.30;99.90;;;;;;5016496;28;20238;-82
2021/08/03 12:57:53;;;;;;;3.30;1.88;;;21.50;99.90;;;;;;5027784;28;20605;-84
2021/08/03 13:00:30;;;;;;;4.88;1.80;;;21.50;99.90;;;;;;5028600;28;20199;-79
2021/08/03 13:02:57;;;;;;;4.22;2.20;;;21.60;99.90;;;;;;5008155;28;20219;-81